Time;durP1;ratioP1;P1;durP2;ratioP2;P2;SDS_P1;SDS_P2;PMS_P1;PMS_P2;Temp;Humidity;BMP_temperature;BMP_pressure;BME280_temperature;BME280_humidity;BME280_pressure;Samples;Min_cycle;Max_cycle;Signal;HPM_P1;HPM_P2
2023/05/08 00:00:58;;;;;;;17.02;15.23;;;12.30;99.90;;;;;;4939237;29;20051;-81
2023/05/08 00:03:24;;;;;;;17.33;15.55;;;12.30;99.90;;;;;;4955286;29;20050;-80
2023/05/08 00:05:49;;;;;;;17.40;14.93;;;12.20;99.90;;;;;;4939462;29;20059;-80
2023/05/08 00:08:15;;;;;;;18.08;16.17;;;12.10;99.90;;;;;;4939234;29;20047;-80
2023/05/08 00:10:41;;;;;;;17.25;15.45;;;12.10;99.90;;;;;;4939073;29;20487;-80
2023/05/08 00:13:07;;;;;;;17.15;15.38;;;12.10;99.90;;;;;;4952277;28;20043;-80
2023/05/08 00:15:34;;;;;;;16.55;14.80;;;12.00;99.90;;;;;;4942667;28;20054;-80
2023/05/08 00:18:00;;;;;;;18.80;16.70;;;12.00;99.90;;;;;;4958561;28;20077;-80
2023/05/08 00:20:26;;;;;;;18.48;15.80;;;11.90;99.90;;;;;;4958026;28;20129;-80
2023/05/08 00:22:52;;;;;;;17.70;15.52;;;11.90;99.90;;;;;;4942387;28;20508;-81
2023/05/08 00:25:17;;;;;;;17.30;15.60;;;11.90;99.90;;;;;;4958383;28;20444;-81
2023/05/08 00:27:43;;;;;;;18.38;15.77;;;11.90;99.90;;;;;;4957825;28;20046;-80
2023/05/08 00:30:09;;;;;;;17.98;16.08;;;11.90;99.90;;;;;;4958296;28;20138;-80
2023/05/08 00:32:35;;;;;;;17.90;16.02;;;11.80;99.90;;;;;;4957903;28;20529;-80
2023/05/08 00:35:01;;;;;;;19.67;15.45;;;11.90;99.90;;;;;;4958234;28;20047;-80
2023/05/08 00:37:27;;;;;;;17.35;15.32;;;11.90;99.90;;;;;;4958218;28;20055;-81
2023/05/08 00:39:53;;;;;;;17.45;15.65;;;11.90;99.90;;;;;;4957829;28;20059;-80
2023/05/08 00:42:18;;;;;;;17.73;15.93;;;11.90;99.90;;;;;;4956810;28;20459;-81
2023/05/08 00:44:44;;;;;;;18.13;16.23;;;11.90;99.90;;;;;;4941752;28;20130;-80
2023/05/08 00:47:10;;;;;;;17.52;15.63;;;11.80;99.90;;;;;;4957844;28;20054;-80
2023/05/08 00:49:37;;;;;;;18.25;16.35;;;11.80;99.90;;;;;;4926157;28;20134;-80
2023/05/08 00:52:07;;;;;;;17.42;15.60;;;11.80;99.90;;;;;;4926167;28;20055;-81
2023/05/08 00:54:36;;;;;;;16.83;15.02;;;11.80;99.90;;;;;;4942159;28;20130;-81
2023/05/08 00:57:05;;;;;;;18.40;16.20;;;11.80;99.90;;;;;;4941351;28;20053;-80
2023/05/08 00:59:32;;;;;;;17.88;16.02;;;11.80;99.90;;;;;;4957688;28;20108;-80
2023/05/08 01:01:59;;;;;;;17.90;15.85;;;11.80;99.90;;;;;;4941243;28;20110;-80
2023/05/08 01:04:26;;;;;;;17.58;15.23;;;11.80;99.90;;;;;;4957533;28;20423;-80
2023/05/08 01:06:52;;;;;;;17.15;15.32;;;11.70;99.90;;;;;;4957423;28;20046;-81
2023/05/08 01:09:18;;;;;;;18.63;16.63;;;11.80;99.90;;;;;;4941689;28;20050;-80
2023/05/08 01:11:53;;;;;;;18.15;15.68;;;11.80;99.90;;;;;;4941471;28;20185;-81
2023/05/08 01:14:38;;;;;;;17.17;14.95;;;11.80;99.90;;;;;;4957679;28;20047;-80
2023/05/08 01:17:10;;;;;;;18.38;16.42;;;11.70;99.90;;;;;;4956969;28;20093;-80
2023/05/08 01:19:54;;;;;;;17.80;15.90;;;11.70;99.90;;;;;;4941002;28;20062;-79
2023/05/08 01:22:54;;;;;;;18.08;16.17;;;11.70;99.90;;;;;;4957517;28;20051;-80
2023/05/08 01:25:39;;;;;;;18.70;15.73;;;11.60;99.90;;;;;;4957573;28;20054;-80
2023/05/08 01:28:13;;;;;;;18.05;15.68;;;11.60;99.90;;;;;;4957434;28;20053;-80
2023/05/08 01:31:01;;;;;;;17.73;15.82;;;11.60;99.90;;;;;;4957223;28;20047;-79
2023/05/08 01:33:39;;;;;;;17.75;15.38;;;11.60;99.90;;;;;;4957459;28;20067;-79
2023/05/08 01:36:19;;;;;;;17.42;15.55;;;11.60;99.90;;;;;;4957377;28;20050;-78
2023/05/08 01:38:51;;;;;;;18.77;15.45;;;11.50;99.90;;;;;;4957172;28;20178;-78
2023/05/08 01:41:30;;;;;;;17.15;15.27;;;11.50;99.90;;;;;;4941671;28;20069;-79
2023/05/08 01:44:05;;;;;;;17.65;15.75;;;11.50;99.90;;;;;;4956772;28;20042;-80
2023/05/08 01:46:32;;;;;;;17.98;15.07;;;11.40;99.90;;;;;;4956771;28;20054;-80
2023/05/08 01:49:08;;;;;;;17.33;15.27;;;11.50;99.90;;;;;;4941188;28;20415;-80
2023/05/08 01:51:42;;;;;;;17.88;15.88;;;11.50;99.90;;;;;;4941375;28;20054;-79
2023/05/08 01:54:13;;;;;;;17.45;15.55;;;11.40;99.90;;;;;;4959114;28;20057;-80
2023/05/08 01:56:43;;;;;;;20.87;16.00;;;11.30;99.90;;;;;;4960966;28;20113;-79
2023/05/08 01:59:13;;;;;;;18.45;16.20;;;11.30;99.90;;;;;;4960848;28;20059;-79
2023/05/08 02:01:40;;;;;;;18.25;16.02;;;11.30;99.90;;;;;;4961082;28;20042;-80
2023/05/08 02:04:07;;;;;;;19.08;17.10;;;11.30;99.90;;;;;;4944391;28;20110;-80
2023/05/08 02:06:35;;;;;;;18.20;16.15;;;11.20;99.90;;;;;;4961015;28;20479;-79
2023/05/08 02:09:01;;;;;;;18.17;15.98;;;10.90;99.90;;;;;;4960918;28;20054;-80
2023/05/08 02:11:30;;;;;;;17.50;15.70;;;11.20;99.90;;;;;;4944661;28;20391;-79
2023/05/08 02:13:59;;;;;;;18.05;16.23;;;11.10;99.90;;;;;;4941382;29;20043;-80
2023/05/08 02:16:27;;;;;;;18.95;16.55;;;11.00;99.90;;;;;;4941214;29;20084;-80
2023/05/08 02:18:55;;;;;;;19.95;16.35;;;11.00;99.90;;;;;;4941510;29;20063;-80
2023/05/08 02:21:22;;;;;;;18.20;16.30;;;11.00;99.90;;;;;;4940871;29;20134;-80
2023/05/08 02:23:49;;;;;;;17.92;16.02;;;10.90;99.90;;;;;;4941215;29;20408;-80
2023/05/08 02:26:15;;;;;;;17.77;15.88;;;10.90;99.90;;;;;;4941078;29;20440;-80
2023/05/08 02:28:42;;;;;;;18.10;16.20;;;10.80;99.90;;;;;;4941065;29;20059;-80
2023/05/08 02:31:09;;;;;;;18.60;16.70;;;10.80;99.90;;;;;;4941331;29;20063;-80
2023/05/08 02:33:38;;;;;;;18.15;16.25;;;10.70;99.90;;;;;;4941169;29;20126;-80
2023/05/08 02:36:06;;;;;;;16.25;14.55;;;10.70;99.90;;;;;;4941184;29;20047;-79
2023/05/08 02:38:34;;;;;;;17.83;16.02;;;10.60;99.90;;;;;;4941055;29;20051;-79
2023/05/08 02:41:02;;;;;;;17.67;15.82;;;10.60;99.90;;;;;;4940605;29;20189;-80
2023/05/08 02:43:28;;;;;;;20.17;17.92;;;10.40;99.90;;;;;;4956391;28;20043;-79
2023/05/08 02:46:19;;;;;;;18.10;16.17;;;10.50;99.90;;;;;;4943722;28;20049;-80
2023/05/08 02:48:59;;;;;;;19.23;17.23;;;10.50;99.90;;;;;;4943923;28;20085;-80
2023/05/08 02:51:48;;;;;;;16.33;14.65;;;10.40;99.90;;;;;;4960144;28;20055;-82
2023/05/08 02:54:34;;;;;;;19.60;17.55;;;10.40;99.90;;;;;;4960133;28;20043;-82
2023/05/08 02:57:18;;;;;;;19.35;16.83;;;10.40;99.90;;;;;;4959990;28;20134;-79
2023/05/08 03:00:01;;;;;;;18.95;16.65;;;10.40;99.90;;;;;;4959945;28;20141;-79
2023/05/08 03:02:37;;;;;;;18.17;16.27;;;10.40;99.90;;;;;;4959338;28;20042;-79
2023/05/08 03:05:19;;;;;;;18.17;16.27;;;10.30;99.90;;;;;;4958602;28;20055;-79
2023/05/08 03:07:51;;;;;;;18.42;16.33;;;10.30;99.90;;;;;;4959455;28;20087;-79
2023/05/08 03:10:20;;;;;;;18.98;16.42;;;10.20;99.90;;;;;;4959416;28;20051;-79
2023/05/08 03:12:49;;;;;;;19.30;16.30;;;10.20;99.90;;;;;;4959500;28;20130;-79
2023/05/08 03:15:22;;;;;;;19.08;16.50;;;10.20;99.90;;;;;;4959505;28;20494;-80
2023/05/08 03:17:53;;;;;;;17.20;15.32;;;10.10;99.90;;;;;;4959727;28;20055;-80
2023/05/08 03:20:21;;;;;;;18.75;16.23;;;10.10;99.90;;;;;;4959255;28;20051;-80
2023/05/08 03:22:49;;;;;;;18.77;16.13;;;10.00;99.90;;;;;;4943080;28;20078;-80
2023/05/08 03:25:18;;;;;;;17.02;15.23;;;10.00;99.90;;;;;;4959238;28;20439;-80
2023/05/08 03:27:45;;;;;;;17.60;15.15;;;10.00;99.90;;;;;;4943222;28;20435;-80
2023/05/08 03:30:12;;;;;;;17.05;15.23;;;10.00;99.90;;;;;;4959452;28;20504;-80
2023/05/08 03:32:43;;;;;;;18.42;16.52;;;10.00;99.90;;;;;;4943294;28;20101;-80
2023/05/08 03:35:09;;;;;;;18.27;16.35;;;9.90;99.90;;;;;;4959394;28;20093;-79
2023/05/08 03:37:36;;;;;;;15.95;14.18;;;9.90;99.90;;;;;;4943295;28;20081;-80
2023/05/08 03:40:02;;;;;;;16.50;14.48;;;9.80;99.90;;;;;;4958952;28;20439;-80
2023/05/08 03:42:30;;;;;;;14.48;13.02;;;9.90;99.90;;;;;;4959054;28;20043;-80
2023/05/08 03:44:56;;;;;;;17.40;15.60;;;9.90;99.90;;;;;;4943032;28;20046;-80
2023/05/08 03:47:25;;;;;;;19.27;16.35;;;10.00;99.90;;;;;;4959162;28;20061;-80
2023/05/08 03:49:51;;;;;;;18.80;16.85;;;10.00;99.90;;;;;;4959056;28;20614;-80
2023/05/08 03:52:17;;;;;;;18.73;16.50;;;10.00;99.90;;;;;;4959055;28;20491;-80
2023/05/08 03:54:45;;;;;;;17.88;15.60;;;10.00;99.90;;;;;;4958604;28;20050;-80
2023/05/08 03:57:11;;;;;;;18.42;16.52;;;10.10;99.90;;;;;;4958984;28;20189;-80
2023/05/08 03:59:59;;;;;;;17.20;14.95;;;10.00;99.90;;;;;;4958841;28;20121;-80
2023/05/08 04:02:30;;;;;;;17.83;15.77;;;10.10;99.90;;;;;;4958737;28;20553;-80
2023/05/08 04:05:08;;;;;;;17.83;15.65;;;10.10;99.90;;;;;;4958539;28;20054;-80
2023/05/08 04:07:46;;;;;;;17.88;15.98;;;10.10;99.90;;;;;;4958765;28;20089;-80
2023/05/08 04:10:34;;;;;;;18.17;16.13;;;10.10;99.90;;;;;;4942145;28;20093;-80
2023/05/08 04:13:09;;;;;;;18.52;16.58;;;10.10;99.90;;;;;;4957386;28;20070;-80
2023/05/08 04:15:47;;;;;;;19.33;16.52;;;10.00;99.90;;;;;;4942339;28;20578;-79
2023/05/08 04:18:20;;;;;;;18.02;16.13;;;10.10;99.90;;;;;;4942584;28;20054;-79
2023/05/08 04:20:48;;;;;;;18.15;16.20;;;10.00;99.90;;;;;;4957967;28;20055;-79
2023/05/08 04:23:17;;;;;;;17.98;16.08;;;10.00;99.90;;;;;;4958144;28;20538;-80
2023/05/08 04:25:44;;;;;;;18.73;16.75;;;10.10;99.90;;;;;;4958214;28;20465;-80
2023/05/08 04:28:11;;;;;;;16.90;15.10;;;10.10;99.90;;;;;;4958272;28;20062;-80
2023/05/08 04:30:38;;;;;;;17.35;14.90;;;10.10;99.90;;;;;;4942485;28;20050;-80
2023/05/08 04:33:05;;;;;;;17.10;15.30;;;10.10;99.90;;;;;;4958043;28;20051;-80
2023/05/08 04:35:32;;;;;;;17.63;15.70;;;9.80;99.90;;;;;;4958054;28;20518;-80
2023/05/08 04:37:58;;;;;;;17.63;15.40;;;10.20;99.90;;;;;;4958172;28;20057;-80
2023/05/08 04:40:24;;;;;;;18.58;15.73;;;10.20;99.90;;;;;;4958139;28;20055;-80
2023/05/08 04:42:50;;;;;;;16.50;14.80;;;10.30;99.90;;;;;;4941648;28;20047;-81
2023/05/08 04:45:16;;;;;;;15.85;14.15;;;10.30;99.90;;;;;;4941758;28;20130;-80
2023/05/08 04:47:42;;;;;;;16.23;14.52;;;10.40;99.90;;;;;;4957954;28;20141;-80
2023/05/08 04:50:08;;;;;;;15.85;13.93;;;10.40;99.90;;;;;;4941915;28;20133;-80
2023/05/08 04:52:34;;;;;;;15.88;14.20;;;10.50;99.90;;;;;;4957984;28;20055;-80
2023/05/08 04:55:00;;;;;;;15.93;13.60;;;10.40;99.90;;;;;;4957971;28;20054;-79
2023/05/08 04:57:25;;;;;;;16.05;14.35;;;10.40;99.90;;;;;;4973623;28;20073;-80
2023/05/08 04:59:51;;;;;;;14.25;12.70;;;10.50;99.90;;;;;;4957433;28;20069;-80
2023/05/08 05:02:17;;;;;;;15.45;13.90;;;10.40;99.90;;;;;;4957666;28;20126;-80
2023/05/08 05:04:46;;;;;;;15.65;13.27;;;10.40;99.90;;;;;;4941875;28;20054;-80
2023/05/08 05:07:11;;;;;;;15.45;13.20;;;10.40;99.90;;;;;;4957690;28;20051;-80
2023/05/08 05:09:38;;;;;;;16.02;13.10;;;10.40;99.90;;;;;;4957599;28;20102;-80
2023/05/08 05:12:07;;;;;;;14.93;13.32;;;10.40;99.90;;;;;;4973126;28;20050;-80
2023/05/08 05:14:32;;;;;;;15.27;13.65;;;10.30;99.90;;;;;;4941666;28;20055;-80
2023/05/08 05:16:58;;;;;;;15.65;14.02;;;10.30;99.90;;;;;;4957542;28;20073;-80
2023/05/08 05:19:24;;;;;;;16.10;13.88;;;10.30;99.90;;;;;;4941729;28;20106;-80
2023/05/08 05:21:50;;;;;;;15.25;13.65;;;10.30;99.90;;;;;;4941465;28;20399;-80
2023/05/08 05:24:16;;;;;;;15.75;13.35;;;10.30;99.90;;;;;;4941569;28;20427;-80
2023/05/08 05:26:41;;;;;;;16.58;14.88;;;10.30;99.90;;;;;;4957587;28;20050;-80
2023/05/08 05:29:07;;;;;;;16.60;14.60;;;10.30;99.90;;;;;;4956738;28;20082;-80
2023/05/08 05:31:33;;;;;;;16.80;14.38;;;10.30;99.90;;;;;;4957444;28;20059;-80
2023/05/08 05:33:59;;;;;;;16.55;14.63;;;10.40;99.90;;;;;;4941482;28;20514;-80
2023/05/08 05:36:25;;;;;;;16.48;14.63;;;10.40;99.90;;;;;;4957493;28;20046;-81
2023/05/08 05:38:51;;;;;;;15.48;13.65;;;10.40;99.90;;;;;;4957539;28;20063;-81
2023/05/08 05:41:17;;;;;;;15.88;14.02;;;10.40;99.90;;;;;;4956930;28;20073;-80
2023/05/08 05:43:42;;;;;;;16.40;14.70;;;10.50;99.90;;;;;;4941204;28;20082;-81
2023/05/08 05:46:12;;;;;;;15.40;13.80;;;10.70;99.90;;;;;;4957176;28;20128;-81
2023/05/08 05:48:37;;;;;;;15.73;14.02;;;10.90;99.90;;;;;;4941493;28;20105;-81
2023/05/08 05:51:03;;;;;;;15.32;13.65;;;11.60;99.90;;;;;;4925106;28;20043;-81
2023/05/08 05:53:29;;;;;;;13.32;11.93;;;12.20;99.90;;;;;;4957321;28;20050;-80
2023/05/08 05:55:54;;;;;;;12.32;11.02;;;12.80;99.90;;;;;;4941432;28;20086;-81
2023/05/08 05:58:20;;;;;;;12.57;10.35;;;13.30;99.90;;;;;;4925649;28;20043;-81
2023/05/08 06:00:47;;;;;;;13.73;10.93;;;13.70;99.90;;;;;;4940938;28;20047;-81
2023/05/08 06:03:13;;;;;;;12.38;10.88;;;14.10;99.90;;;;;;4925190;28;20051;-80
2023/05/08 06:05:39;;;;;;;12.88;10.27;;;14.30;99.90;;;;;;4957316;28;20043;-81
2023/05/08 06:08:10;;;;;;;10.75;9.48;;;14.60;99.90;;;;;;4957017;28;20047;-82
2023/05/08 06:10:35;;;;;;;12.65;10.02;;;15.00;99.90;;;;;;4941516;28;20113;-81
2023/05/08 06:13:01;;;;;;;11.15;9.45;;;14.90;99.90;;;;;;4957227;28;20050;-81
2023/05/08 06:15:27;;;;;;;12.05;10.18;;;14.70;99.90;;;;;;4957312;28;20450;-81
2023/05/08 06:17:53;;;;;;;10.98;9.35;;;14.70;99.90;;;;;;4956631;28;20057;-81
2023/05/08 06:20:19;;;;;;;11.07;9.75;;;15.10;99.90;;;;;;4924887;28;20059;-82
2023/05/08 06:22:45;;;;;;;12.20;9.30;;;15.20;99.90;;;;;;4925012;28;20074;-82
2023/05/08 06:25:11;;;;;;;11.30;9.73;;;15.20;99.90;;;;;;4909401;28;20090;-82
2023/05/08 06:27:39;;;;;;;11.02;9.45;;;15.40;99.90;;;;;;4957094;28;20061;-81
2023/05/08 06:30:09;;;;;;;12.02;9.20;;;15.60;99.90;;;;;;4941180;28;20051;-81
2023/05/08 06:32:35;;;;;;;11.32;10.13;;;15.70;99.90;;;;;;4941671;28;20059;-81
2023/05/08 06:35:01;;;;;;;11.52;10.15;;;15.60;99.90;;;;;;4957084;28;20061;-81
2023/05/08 06:37:27;;;;;;;11.40;9.52;;;15.50;99.90;;;;;;4941224;28;20050;-81
2023/05/08 06:39:52;;;;;;;12.77;9.27;;;15.60;99.90;;;;;;4956952;28;20101;-80
2023/05/08 06:42:18;;;;;;;11.15;9.30;;;15.80;99.90;;;;;;4928692;28;20039;-81
2023/05/08 06:44:44;;;;;;;12.23;9.93;;;16.00;99.90;;;;;;4960431;28;20553;-82
2023/05/08 06:47:10;;;;;;;15.93;9.82;;;15.90;99.90;;;;;;4944197;28;20073;-81
2023/05/08 06:49:36;;;;;;;11.70;10.32;;;15.70;99.90;;;;;;4960485;28;20130;-81
2023/05/08 06:52:02;;;;;;;11.85;10.43;;;15.40;99.90;;;;;;4960371;28;20058;-81
2023/05/08 06:54:27;;;;;;;11.95;10.75;;;15.00;99.90;;;;;;4959947;28;20458;-82
2023/05/08 06:56:53;;;;;;;11.05;9.13;;;14.80;99.90;;;;;;4944305;28;20133;-82
2023/05/08 06:59:20;;;;;;;11.90;9.55;;;14.60;99.90;;;;;;4928024;28;20057;-82
2023/05/08 07:01:46;;;;;;;12.82;10.82;;;14.40;99.90;;;;;;4960413;28;20487;-82
2023/05/08 07:04:11;;;;;;;12.15;10.85;;;14.30;99.90;;;;;;4959790;28;20053;-83
2023/05/08 07:06:37;;;;;;;12.30;11.00;;;14.20;99.90;;;;;;4959581;28;20049;-82
2023/05/08 07:09:03;;;;;;;12.70;10.90;;;14.10;99.90;;;;;;4943983;28;20077;-83
2023/05/08 07:11:29;;;;;;;12.02;10.73;;;14.30;99.90;;;;;;4943688;28;20367;-82
2023/05/08 07:13:55;;;;;;;13.82;10.55;;;14.50;99.90;;;;;;4943432;28;20047;-84
2023/05/08 07:16:20;;;;;;;12.15;10.85;;;14.70;99.90;;;;;;4959763;28;20047;-83
2023/05/08 07:18:46;;;;;;;12.10;10.88;;;14.80;99.90;;;;;;4960500;28;20058;-82
2023/05/08 07:21:14;;;;;;;12.15;10.70;;;14.80;99.90;;;;;;4959524;28;20055;-83
2023/05/08 07:23:40;;;;;;;12.82;10.88;;;15.00;99.90;;;;;;4959408;28;20403;-84
2023/05/08 07:26:07;;;;;;;13.45;10.52;;;15.20;99.90;;;;;;4943998;28;20125;-83
2023/05/08 07:28:35;;;;;;;13.50;11.10;;;15.60;99.90;;;;;;4943797;28;20541;-83
2023/05/08 07:31:05;;;;;;;11.57;10.38;;;15.70;99.90;;;;;;4959538;28;20055;-84
2023/05/08 07:33:32;;;;;;;12.40;10.52;;;15.90;99.90;;;;;;4943548;28;20197;-83
2023/05/08 07:35:59;;;;;;;12.00;10.80;;;16.20;99.90;;;;;;4959413;28;20073;-84
2023/05/08 07:38:24;;;;;;;11.77;10.57;;;16.60;99.90;;;;;;4959066;28;20059;-83
2023/05/08 07:40:52;;;;;;;13.48;10.77;;;16.80;99.90;;;;;;4959359;28;20053;-84
2023/05/08 07:43:17;;;;;;;12.23;10.68;;;17.00;99.90;;;;;;4958858;28;20101;-83
2023/05/08 07:45:43;;;;;;;12.43;11.13;;;17.30;99.90;;;;;;4927481;28;20059;-84
2023/05/08 07:48:09;;;;;;;12.70;11.32;;;17.30;99.90;;;;;;4958753;28;20062;-83
2023/05/08 07:50:35;;;;;;;12.13;10.80;;;17.50;99.90;;;;;;4958817;28;20062;-83
2023/05/08 07:53:01;;;;;;;12.43;11.10;;;17.60;99.90;;;;;;4959061;28;20058;-83
2023/05/08 07:55:26;;;;;;;13.00;11.43;;;17.60;99.90;;;;;;4959096;28;20043;-84
2023/05/08 07:57:52;;;;;;;12.45;11.15;;;17.80;99.90;;;;;;4958998;28;20491;-84
2023/05/08 08:00:18;;;;;;;12.85;10.90;;;17.80;99.90;;;;;;4942891;28;20068;-84
2023/05/08 08:02:44;;;;;;;11.65;10.18;;;17.90;99.90;;;;;;4958544;28;20054;-83
2023/05/08 08:05:10;;;;;;;14.05;11.65;;;17.90;99.90;;;;;;4926625;28;20105;-84
2023/05/08 08:07:36;;;;;;;11.73;10.52;;;18.10;99.90;;;;;;4958680;28;20089;-84
2023/05/08 08:10:06;;;;;;;11.25;10.05;;;18.30;99.90;;;;;;4958514;28;20070;-84
2023/05/08 08:12:32;;;;;;;11.75;10.38;;;18.60;99.90;;;;;;4942684;28;20051;-84
2023/05/08 08:14:57;;;;;;;13.02;11.60;;;18.80;99.90;;;;;;4958578;28;20047;-84
2023/05/08 08:17:23;;;;;;;12.85;10.52;;;18.90;99.90;;;;;;4958329;28;20054;-84
2023/05/08 08:19:49;;;;;;;12.10;10.90;;;18.90;99.90;;;;;;4926281;28;20408;-85
2023/05/08 08:22:15;;;;;;;12.88;11.20;;;19.00;99.90;;;;;;4974444;28;20080;-85
2023/05/08 08:24:41;;;;;;;12.15;10.85;;;19.20;99.90;;;;;;4958415;28;20162;-85
2023/05/08 08:27:07;;;;;;;11.68;10.55;;;19.30;99.90;;;;;;4958045;28;20492;-85
2023/05/08 08:29:32;;;;;;;12.35;10.82;;;19.60;99.90;;;;;;4958485;28;20047;-84
2023/05/08 08:31:59;;;;;;;12.65;11.13;;;19.70;99.20;;;;;;4958346;28;20053;-84
2023/05/08 08:34:28;;;;;;;12.57;11.10;;;19.70;97.70;;;;;;4958059;28;20121;-84
2023/05/08 08:36:54;;;;;;;12.18;10.98;;;19.80;99.20;;;;;;4957691;28;20491;-85
2023/05/08 08:39:20;;;;;;;11.45;10.25;;;19.90;96.90;;;;;;4942318;28;20163;-84
2023/05/08 08:41:46;;;;;;;12.30;10.50;;;19.80;98.00;;;;;;4958064;28;20098;-85
2023/05/08 08:44:14;;;;;;;11.65;10.45;;;19.90;97.50;;;;;;4941421;28;20054;-85
2023/05/08 08:46:49;;;;;;;12.48;11.18;;;20.00;97.30;;;;;;4957680;28;20046;-85
2023/05/08 08:49:23;;;;;;;12.10;10.80;;;20.10;96.80;;;;;;4958115;28;20055;-84
2023/05/08 08:51:54;;;;;;;12.85;11.48;;;20.10;97.50;;;;;;4958138;28;20137;-85
2023/05/08 08:54:22;;;;;;;13.15;11.75;;;20.10;97.70;;;;;;4958062;28;20054;-85
2023/05/08 08:56:50;;;;;;;12.30;11.10;;;20.20;98.10;;;;;;4958039;28;20101;-84
2023/05/08 08:59:17;;;;;;;12.82;11.50;;;20.50;96.90;;;;;;4941835;28;20055;-85
2023/05/08 09:02:10;;;;;;;13.10;11.80;;;20.50;95.90;;;;;;4941913;28;20061;-85
2023/05/08 09:04:36;;;;;;;13.10;11.70;;;20.50;96.70;;;;;;4945340;28;20094;-85
2023/05/08 09:07:04;;;;;;;13.68;11.85;;;20.70;98.90;;;;;;4957641;28;20166;-85
2023/05/08 09:09:34;;;;;;;13.10;11.52;;;21.00;96.10;;;;;;4941973;28;20134;-85
2023/05/08 09:12:00;;;;;;;13.05;11.35;;;21.00;94.00;;;;;;4941250;28;20047;-86
2023/05/08 09:14:28;;;;;;;12.88;11.57;;;21.00;95.00;;;;;;4925838;28;20046;-86
2023/05/08 09:16:54;;;;;;;13.68;12.18;;;21.00;94.70;;;;;;4942131;28;20129;-86
2023/05/08 09:19:20;;;;;;;14.02;12.63;;;21.00;98.50;;;;;;4940961;28;20478;-85
2023/05/08 09:21:47;;;;;;;13.70;12.40;;;21.10;95.20;;;;;;4941792;28;20046;-85
2023/05/08 09:24:13;;;;;;;12.82;11.50;;;20.80;95.40;;;;;;4973460;28;20403;-85
2023/05/08 09:26:40;;;;;;;13.88;11.80;;;21.00;93.60;;;;;;4974763;28;20073;-84
2023/05/08 09:29:14;;;;;;;13.57;12.13;;;21.10;94.90;;;;;;4957674;28;20379;-85
2023/05/08 09:31:49;;;;;;;14.52;12.63;;;21.10;94.80;;;;;;4957222;28;20173;-86
2023/05/08 09:34:41;;;;;;;14.10;12.60;;;21.30;95.60;;;;;;4957003;28;20050;-86
2023/05/08 09:37:07;;;;;;;;;;;21.50;95.40;;;;;;4953674;28;20137;-86
2023/05/08 09:39:33;;;;;;;13.45;12.07;;;21.40;96.10;;;;;;4957540;28;19925;-86
2023/05/08 09:42:03;;;;;;;13.77;12.38;;;21.50;94.80;;;;;;4957239;28;20055;-86
2023/05/08 09:44:52;;;;;;;14.05;12.55;;;21.30;94.40;;;;;;4957486;28;20050;-86
2023/05/08 09:47:19;;;;;;;15.27;13.00;;;21.30;94.70;;;;;;4956506;28;20086;-86
2023/05/08 09:50:05;;;;;;;13.70;12.30;;;21.30;94.50;;;;;;4941488;28;20047;-87
2023/05/08 09:52:32;;;;;;;13.93;12.50;;;21.40;94.00;;;;;;4941350;28;20066;-85
2023/05/08 09:55:05;;;;;;;13.43;11.98;;;21.40;94.60;;;;;;4956731;28;20113;-86
2023/05/08 09:57:37;;;;;;;14.63;12.55;;;21.40;94.00;;;;;;4925400;28;20491;-86
2023/05/08 10:00:27;;;;;;;15.27;12.90;;;21.50;95.30;;;;;;4957330;28;20047;-86
2023/05/08 10:03:01;;;;;;;14.43;12.93;;;21.80;94.50;;;;;;4956667;28;20061;-86
2023/05/08 10:05:29;;;;;;;15.07;13.13;;;22.00;93.40;;;;;;4957196;28;20152;-86
2023/05/08 10:08:16;;;;;;;15.63;14.13;;;22.10;93.90;;;;;;4957267;28;20149;-85
2023/05/08 10:10:42;;;;;;;15.15;13.55;;;22.00;96.10;;;;;;4957184;28;20129;-86
2023/05/08 10:13:10;;;;;;;15.23;13.73;;;22.20;94.30;;;;;;4956607;28;20138;-85
2023/05/08 10:15:37;;;;;;;14.48;12.98;;;22.40;94.30;;;;;;4960290;28;20062;-85
2023/05/08 10:18:05;;;;;;;14.48;12.90;;;22.40;93.30;;;;;;4928792;28;20061;-85
2023/05/08 10:20:33;;;;;;;14.60;13.10;;;22.40;92.10;;;;;;4960421;28;20065;-86
2023/05/08 10:23:00;;;;;;;14.38;12.88;;;22.30;92.70;;;;;;4960243;28;20042;-86
2023/05/08 10:25:32;;;;;;;15.82;14.27;;;22.20;93.50;;;;;;4944284;28;20045;-87
2023/05/08 10:28:23;;;;;;;15.20;13.57;;;22.10;92.90;;;;;;4960025;28;20105;-85
2023/05/08 10:30:49;;;;;;;13.88;12.35;;;22.00;93.60;;;;;;4960408;28;20047;-85
2023/05/08 10:33:19;;;;;;;15.80;14.20;;;22.10;92.30;;;;;;4976371;28;20446;-85
2023/05/08 10:35:46;;;;;;;15.27;13.77;;;21.80;93.80;;;;;;4943831;28;20047;-85
2023/05/08 10:38:15;;;;;;;14.52;13.10;;;21.80;94.70;;;;;;4960171;28;20319;-86
2023/05/08 10:40:41;;;;;;;15.85;14.15;;;21.80;94.00;;;;;;4960386;28;20146;-86
2023/05/08 10:43:10;;;;;;;15.50;14.00;;;21.70;94.70;;;;;;4960016;28;20121;-86
2023/05/08 10:45:37;;;;;;;15.52;13.55;;;21.50;95.70;;;;;;4944403;28;20106;-86
2023/05/08 10:48:25;;;;;;;14.68;13.13;;;21.80;96.30;;;;;;4960006;28;20137;-85
2023/05/08 10:51:06;;;;;;;15.60;14.00;;;22.10;93.70;;;;;;4943996;28;20051;-86
2023/05/08 10:53:35;;;;;;;15.00;13.40;;;22.10;94.80;;;;;;4960254;28;20051;-85
2023/05/08 10:56:01;;;;;;;17.63;12.52;;;22.10;93.60;;;;;;4943538;28;20082;-85
2023/05/08 10:58:39;;;;;;;13.88;12.38;;;22.00;94.30;;;;;;4959853;28;20089;-86
2023/05/08 11:01:12;;;;;;;13.07;11.70;;;21.80;95.30;;;;;;4960001;28;20043;-85
2023/05/08 11:03:43;;;;;;;13.90;12.50;;;21.90;94.20;;;;;;4959722;28;20047;-85
2023/05/08 11:06:09;;;;;;;14.25;12.75;;;21.90;95.20;;;;;;4959782;28;20051;-84
2023/05/08 11:08:50;;;;;;;14.88;12.75;;;22.00;96.50;;;;;;4943736;28;20058;-85
2023/05/08 11:11:28;;;;;;;13.60;12.20;;;22.10;95.10;;;;;;4943906;28;20070;-86
2023/05/08 11:14:08;;;;;;;12.90;11.48;;;22.60;96.70;;;;;;4940559;29;20043;-85
2023/05/08 11:16:52;;;;;;;13.10;11.80;;;22.90;93.10;;;;;;4940671;29;20061;-85
2023/05/08 11:19:23;;;;;;;13.77;12.27;;;23.10;91.60;;;;;;4940581;29;20533;-84
2023/05/08 11:22:14;;;;;;;14.33;12.30;;;23.20;91.30;;;;;;4940528;29;20051;-85
2023/05/08 11:24:48;;;;;;;14.68;12.73;;;23.20;91.30;;;;;;4940451;29;20054;-84
2023/05/08 11:27:15;;;;;;;14.10;12.60;;;23.20;92.30;;;;;;4924107;29;20090;-85
2023/05/08 11:29:41;;;;;;;15.82;13.85;;;23.30;93.50;;;;;;4956068;29;20106;-85
2023/05/08 11:32:06;;;;;;;13.82;12.30;;;23.60;93.50;;;;;;4956304;29;20063;-84
2023/05/08 11:34:41;;;;;;;14.70;13.25;;;23.70;91.40;;;;;;4940407;29;20130;-85
2023/05/08 11:37:21;;;;;;;14.32;12.82;;;23.60;91.10;;;;;;4939784;29;20142;-84
2023/05/08 11:39:47;;;;;;;16.38;14.73;;;23.50;91.80;;;;;;4940179;29;20047;-84
2023/05/08 11:42:34;;;;;;;15.90;13.75;;;23.60;92.30;;;;;;4940082;29;20143;-84
2023/05/08 11:45:13;;;;;;;15.15;13.65;;;23.70;91.20;;;;;;4939579;29;20066;-85
2023/05/08 11:47:43;;;;;;;16.30;14.50;;;23.80;93.60;;;;;;4940066;29;20058;-85
2023/05/08 11:50:11;;;;;;;13.70;12.30;;;23.80;92.50;;;;;;4955997;29;20073;-85
2023/05/08 11:52:39;;;;;;;16.48;14.27;;;23.60;91.50;;;;;;4939560;29;20083;-84
2023/05/08 11:55:07;;;;;;;16.90;15.10;;;23.50;91.50;;;;;;4955597;29;20141;-84
2023/05/08 11:57:33;;;;;;;16.73;15.13;;;23.30;91.20;;;;;;4939611;29;20074;-84
2023/05/08 12:00:10;;;;;;;17.25;15.45;;;23.10;92.80;;;;;;4971924;28;20050;-84
2023/05/08 12:02:44;;;;;;;15.90;14.07;;;23.30;93.70;;;;;;4939904;29;20440;-84
2023/05/08 12:05:10;;;;;;;15.55;13.85;;;23.70;91.20;;;;;;4923885;29;20055;-83
2023/05/08 12:07:43;;;;;;;13.60;12.20;;;23.70;92.60;;;;;;4939566;29;20054;-81
2023/05/08 12:10:09;;;;;;;14.40;12.90;;;23.70;92.70;;;;;;4939319;29;20051;-82
2023/05/08 12:12:42;;;;;;;15.68;14.07;;;23.90;93.60;;;;;;4958355;28;20058;-82
2023/05/08 12:15:10;;;;;;;14.40;12.90;;;23.90;92.50;;;;;;4942702;28;20053;-82
2023/05/08 12:17:39;;;;;;;15.07;13.57;;;24.10;94.20;;;;;;4975701;28;20050;-81
2023/05/08 12:20:09;;;;;;;14.77;13.20;;;24.30;94.40;;;;;;4974345;28;20058;-82
2023/05/08 12:22:35;;;;;;;14.70;13.10;;;24.20;93.00;;;;;;4974656;28;20121;-83
2023/05/08 12:25:04;;;;;;;14.38;12.65;;;24.10;92.20;;;;;;4974330;28;20129;-81
2023/05/08 12:27:32;;;;;;;15.00;12.05;;;24.10;91.40;;;;;;4958469;28;20109;-81
2023/05/08 12:29:58;;;;;;;14.57;13.05;;;23.90;90.30;;;;;;4958054;28;20451;-82
2023/05/08 12:32:24;;;;;;;13.93;12.20;;;23.50;91.90;;;;;;4942543;28;20072;-82
2023/05/08 12:34:51;;;;;;;14.02;12.52;;;23.50;95.20;;;;;;4958000;28;20046;-81
2023/05/08 12:37:26;;;;;;;13.75;12.40;;;23.80;95.20;;;;;;4926574;28;20093;-82
2023/05/08 12:39:52;;;;;;;14.52;12.10;;;24.10;94.60;;;;;;4942450;28;20054;-83